sensor_id;sensor_type;location;lat;lon;timestamp;pressure;altitude;pressure_sealevel;temperature;humidity
64758;BME280;51193;45.588;5.376;2022-08-25T00:00:13;96168.50;;;24.78;nan
64758;BME280;51193;45.588;5.376;2022-08-25T00:02:38;96157.50;;;24.81;nan
64758;BME280;51193;45.588;5.376;2022-08-25T00:05:04;96172.41;;;24.83;nan
64758;BME280;51193;45.588;5.376;2022-08-25T00:07:29;96175.13;;;24.74;nan
64758;BME280;51193;45.588;5.376;2022-08-25T00:09:55;96167.22;;;24.72;nan
64758;BME280;51193;45.588;5.376;2022-08-25T00:12:20;96166.94;;;24.75;nan
64758;BME280;51193;45.588;5.376;2022-08-25T00:14:45;96171.31;;;24.76;nan
64758;BME280;51193;45.588;5.376;2022-08-25T00:17:11;96179.19;;;24.78;nan
64758;BME280;51193;45.588;5.376;2022-08-25T00:19:36;96178.31;;;24.77;nan
64758;BME280;51193;45.588;5.376;2022-08-25T00:22:02;96181.72;;;24.79;nan
64758;BME280;51193;45.588;5.376;2022-08-25T00:24:28;96179.03;;;24.79;nan
64758;BME280;51193;45.588;5.376;2022-08-25T00:26:54;96173.84;;;24.78;nan
64758;BME280;51193;45.588;5.376;2022-08-25T00:29:21;96166.66;;;24.78;nan
64758;BME280;51193;45.588;5.376;2022-08-25T00:31:46;96154.97;;;24.79;nan
64758;BME280;51193;45.588;5.376;2022-08-25T00:34:13;96156.94;;;24.77;nan
64758;BME280;51193;45.588;5.376;2022-08-25T00:36:39;96155.53;;;24.73;nan
64758;BME280;51193;45.588;5.376;2022-08-25T00:39:05;96160.88;;;24.73;nan
64758;BME280;51193;45.588;5.376;2022-08-25T00:41:31;96153.84;;;24.72;nan
64758;BME280;51193;45.588;5.376;2022-08-25T00:43:59;96156.22;;;24.75;nan
64758;BME280;51193;45.588;5.376;2022-08-25T00:46:29;96157.09;;;24.76;nan
64758;BME280;51193;45.588;5.376;2022-08-25T00:48:59;96158.06;;;24.75;nan
64758;BME280;51193;45.588;5.376;2022-08-25T00:51:29;96151.19;;;24.72;nan
64758;BME280;51193;45.588;5.376;2022-08-25T00:53:57;96150.59;;;24.68;nan
64758;BME280;51193;45.588;5.376;2022-08-25T00:56:22;96148.94;;;24.67;nan
64758;BME280;51193;45.588;5.376;2022-08-25T00:58:48;96151.03;;;24.64;nan
64758;BME280;51193;45.588;5.376;2022-08-25T01:01:14;96158.34;;;24.62;nan
64758;BME280;51193;45.588;5.376;2022-08-25T01:03:40;96154.84;;;24.61;nan
64758;BME280;51193;45.588;5.376;2022-08-25T01:06:05;96150.59;;;24.59;nan
64758;BME280;51193;45.588;5.376;2022-08-25T01:08:31;96156.09;;;24.57;nan
64758;BME280;51193;45.588;5.376;2022-08-25T01:10:57;96163.41;;;24.55;nan
64758;BME280;51193;45.588;5.376;2022-08-25T01:13:25;96172.41;;;24.54;nan
64758;BME280;51193;45.588;5.376;2022-08-25T01:15:53;96167.47;;;24.49;nan
64758;BME280;51193;45.588;5.376;2022-08-25T01:18:18;96172.81;;;24.49;nan
64758;BME280;51193;45.588;5.376;2022-08-25T01:20:48;96171.94;;;24.49;nan
64758;BME280;51193;45.588;5.376;2022-08-25T01:23:13;96169.53;;;24.46;nan
64758;BME280;51193;45.588;5.376;2022-08-25T01:25:47;96175.28;;;24.41;nan
64758;BME280;51193;45.588;5.376;2022-08-25T01:28:16;96168.53;;;24.37;nan
64758;BME280;51193;45.588;5.376;2022-08-25T01:30:42;96172.34;;;24.35;nan
64758;BME280;51193;45.588;5.376;2022-08-25T01:33:08;96171.47;;;24.34;nan
64758;BME280;51193;45.588;5.376;2022-08-25T01:35:34;96164.44;;;24.33;nan
64758;BME280;51193;45.588;5.376;2022-08-25T01:38:00;96163.59;;;24.33;nan
64758;BME280;51193;45.588;5.376;2022-08-25T01:40:26;96173.44;;;24.32;nan
64758;BME280;51193;45.588;5.376;2022-08-25T01:43:06;96178.78;;;24.32;nan
64758;BME280;51193;45.588;5.376;2022-08-25T01:45:34;96167.25;;;24.32;nan
64758;BME280;51193;45.588;5.376;2022-08-25T01:48:00;96167.25;;;24.32;nan
64758;BME280;51193;45.588;5.376;2022-08-25T01:50:25;96162.75;;;24.32;nan
64758;BME280;51193;45.588;5.376;2022-08-25T01:52:55;96167.53;;;24.28;nan
64758;BME280;51193;45.588;5.376;2022-08-25T01:55:22;96167.53;;;24.28;nan
64758;BME280;51193;45.588;5.376;2022-08-25T01:57:47;96174.84;;;24.26;nan
64758;BME280;51193;45.588;5.376;2022-08-25T02:00:13;96175.38;;;24.20;nan
64758;BME280;51193;45.588;5.376;2022-08-25T02:02:39;96174.81;;;24.17;nan
64758;BME280;51193;45.588;5.376;2022-08-25T02:05:05;96176.88;;;24.13;nan
64758;BME280;51193;45.588;5.376;2022-08-25T02:07:30;96182.53;;;24.10;nan
64758;BME280;51193;45.588;5.376;2022-08-25T02:09:56;96178.13;;;24.09;nan
64758;BME280;51193;45.588;5.376;2022-08-25T02:12:21;96168.44;;;24.08;nan
64758;BME280;51193;45.588;5.376;2022-08-25T02:14:47;96168.66;;;23.95;nan
64758;BME280;51193;45.588;5.376;2022-08-25T02:17:12;96169.66;;;23.94;nan
64758;BME280;51193;45.588;5.376;2022-08-25T02:19:38;96163.47;;;23.94;nan
64758;BME280;51193;45.588;5.376;2022-08-25T02:22:03;96165.88;;;23.97;nan
64758;BME280;51193;45.588;5.376;2022-08-25T02:24:28;96169.91;;;23.91;nan
64758;BME280;51193;45.588;5.376;2022-08-25T02:26:54;96154.50;;;23.74;nan
64758;BME280;51193;45.588;5.376;2022-08-25T02:29:19;96154.03;;;23.68;nan
64758;BME280;51193;45.588;5.376;2022-08-25T02:31:44;96148.13;;;23.65;nan
64758;BME280;51193;45.588;5.376;2022-08-25T02:34:10;96153.91;;;23.70;nan
64758;BME280;51193;45.588;5.376;2022-08-25T02:36:36;96151.81;;;23.74;nan
64758;BME280;51193;45.588;5.376;2022-08-25T02:39:02;96148.16;;;23.75;nan
64758;BME280;51193;45.588;5.376;2022-08-25T02:41:28;96147.19;;;23.76;nan
64758;BME280;51193;45.588;5.376;2022-08-25T02:43:54;96144.53;;;23.76;nan
64758;BME280;51193;45.588;5.376;2022-08-25T02:46:19;96149.41;;;23.70;nan
64758;BME280;51193;45.588;5.376;2022-08-25T02:48:45;96143.88;;;23.62;nan
64758;BME280;51193;45.588;5.376;2022-08-25T02:51:11;96140.72;;;23.47;nan
64758;BME280;51193;45.588;5.376;2022-08-25T02:53:36;96143.81;;;23.43;nan
64758;BME280;51193;45.588;5.376;2022-08-25T02:56:03;96142.63;;;23.36;nan
64758;BME280;51193;45.588;5.376;2022-08-25T02:58:29;96141.19;;;23.32;nan
64758;BME280;51193;45.588;5.376;2022-08-25T03:00:54;96138.72;;;23.40;nan
64758;BME280;51193;45.588;5.376;2022-08-25T03:03:20;96142.97;;;23.42;nan
64758;BME280;51193;45.588;5.376;2022-08-25T03:05:46;96137.88;;;23.39;nan
64758;BME280;51193;45.588;5.376;2022-08-25T03:08:12;96152.06;;;23.40;nan
64758;BME280;51193;45.588;5.376;2022-08-25T03:10:37;96143.72;;;23.33;nan
64758;BME280;51193;45.588;5.376;2022-08-25T03:13:02;96139.75;;;23.27;nan
64758;BME280;51193;45.588;5.376;2022-08-25T03:15:28;96141.47;;;23.28;nan
64758;BME280;51193;45.588;5.376;2022-08-25T03:17:53;96137.75;;;23.20;nan
64758;BME280;51193;45.588;5.376;2022-08-25T03:20:19;96145.41;;;23.13;nan
64758;BME280;51193;45.588;5.376;2022-08-25T03:22:45;96136.88;;;22.98;nan
64758;BME280;51193;45.588;5.376;2022-08-25T03:25:10;96141.59;;;22.95;nan
64758;BME280;51193;45.588;5.376;2022-08-25T03:27:54;96133.28;;;22.88;nan
64758;BME280;51193;45.588;5.376;2022-08-25T03:30:20;96135.00;;;22.89;nan
64758;BME280;51193;45.588;5.376;2022-08-25T03:32:45;96131.94;;;22.94;nan
64758;BME280;51193;45.588;5.376;2022-08-25T03:35:11;96140.66;;;22.96;nan
64758;BME280;51193;45.588;5.376;2022-08-25T03:37:36;96136.88;;;22.98;nan
64758;BME280;51193;45.588;5.376;2022-08-25T03:40:06;96145.69;;;22.99;nan
64758;BME280;51193;45.588;5.376;2022-08-25T03:42:33;96148.38;;;22.99;nan
64758;BME280;51193;45.588;5.376;2022-08-25T03:45:00;96145.84;;;22.97;nan
64758;BME280;51193;45.588;5.376;2022-08-25T03:47:25;96134.59;;;22.94;nan
64758;BME280;51193;45.588;5.376;2022-08-25T03:49:53;96141.41;;;22.86;nan
64758;BME280;51193;45.588;5.376;2022-08-25T03:52:18;96132.44;;;22.87;nan
64758;BME280;51193;45.588;5.376;2022-08-25T03:54:44;96138.16;;;22.83;nan
64758;BME280;51193;45.588;5.376;2022-08-25T03:57:09;96129.78;;;22.87;nan
64758;BME280;51193;45.588;5.376;2022-08-25T03:59:35;96125.78;;;22.82;nan
64758;BME280;51193;45.588;5.376;2022-08-25T04:02:03;96123.72;;;22.85;nan
64758;BME280;51193;45.588;5.376;2022-08-25T04:04:28;96127.09;;;22.87;nan
64758;BME280;51193;45.588;5.376;2022-08-25T04:06:53;96140.44;;;22.87;nan
64758;BME280;51193;45.588;5.376;2022-08-25T04:09:18;96132.44;;;22.87;nan
64758;BME280;51193;45.588;5.376;2022-08-25T04:11:44;96123.34;;;22.90;nan
64758;BME280;51193;45.588;5.376;2022-08-25T04:14:09;96121.50;;;22.90;nan
64758;BME280;51193;45.588;5.376;2022-08-25T04:16:35;96121.78;;;22.87;nan
64758;BME280;51193;45.588;5.376;2022-08-25T04:19:01;96119.00;;;22.89;nan
64758;BME280;51193;45.588;5.376;2022-08-25T04:21:27;96123.13;;;22.82;nan
64758;BME280;51193;45.588;5.376;2022-08-25T04:23:53;96122.16;;;22.83;nan
64758;BME280;51193;45.588;5.376;2022-08-25T04:26:39;96123.72;;;22.85;nan
64758;BME280;51193;45.588;5.376;2022-08-25T04:29:06;96115.44;;;22.88;nan
64758;BME280;51193;45.588;5.376;2022-08-25T04:31:33;96121.91;;;22.86;nan
64758;BME280;51193;45.588;5.376;2022-08-25T04:34:02;96114.28;;;22.81;nan
64758;BME280;51193;45.588;5.376;2022-08-25T04:36:28;96114.69;;;22.77;nan
64758;BME280;51193;45.588;5.376;2022-08-25T04:38:53;96122.53;;;22.78;nan
64758;BME280;51193;45.588;5.376;2022-08-25T04:41:20;96118.19;;;22.77;nan
64758;BME280;51193;45.588;5.376;2022-08-25T04:43:45;96119.41;;;22.73;nan
64758;BME280;51193;45.588;5.376;2022-08-25T04:46:18;96119.00;;;22.57;nan
64758;BME280;51193;45.588;5.376;2022-08-25T04:48:44;96116.13;;;22.48;nan
64758;BME280;51193;45.588;5.376;2022-08-25T04:51:10;96115.06;;;22.40;nan
64758;BME280;51193;45.588;5.376;2022-08-25T04:53:36;96114.59;;;22.35;nan
64758;BME280;51193;45.588;5.376;2022-08-25T04:56:04;96116.38;;;22.23;nan
64758;BME280;51193;45.588;5.376;2022-08-25T04:58:30;96118.72;;;22.16;nan
64758;BME280;51193;45.588;5.376;2022-08-25T05:01:05;96132.91;;;22.05;nan
64758;BME280;51193;45.588;5.376;2022-08-25T05:03:31;96122.13;;;22.07;nan
64758;BME280;51193;45.588;5.376;2022-08-25T05:08:33;96126.97;;;22.02;nan
64758;BME280;51193;45.588;5.376;2022-08-25T05:10:58;96127.19;;;22.10;nan
64758;BME280;51193;45.588;5.376;2022-08-25T05:13:24;96131.19;;;22.16;nan
64758;BME280;51193;45.588;5.376;2022-08-25T05:15:50;96130.91;;;22.19;nan
64758;BME280;51193;45.588;5.376;2022-08-25T05:18:16;96132.16;;;22.26;nan
64758;BME280;51193;45.588;5.376;2022-08-25T05:20:42;96127.44;;;22.29;nan
64758;BME280;51193;45.588;5.376;2022-08-25T05:23:07;96128.00;;;22.33;nan
64758;BME280;51193;45.588;5.376;2022-08-25T05:25:32;96123.69;;;22.32;nan
64758;BME280;51193;45.588;5.376;2022-08-25T05:27:58;96120.28;;;22.30;nan
64758;BME280;51193;45.588;5.376;2022-08-25T05:30:23;96123.91;;;22.29;nan
64758;BME280;51193;45.588;5.376;2022-08-25T05:32:49;96128.16;;;22.32;nan
64758;BME280;51193;45.588;5.376;2022-08-25T05:35:15;96126.69;;;22.39;nan
64758;BME280;51193;45.588;5.376;2022-08-25T05:37:40;96121.69;;;22.45;nan
64758;BME280;51193;45.588;5.376;2022-08-25T05:40:05;96126.91;;;22.47;nan
64758;BME280;51193;45.588;5.376;2022-08-25T05:42:32;96126.91;;;22.47;nan
64758;BME280;51193;45.588;5.376;2022-08-25T05:44:57;96136.84;;;22.45;nan
64758;BME280;51193;45.588;5.376;2022-08-25T05:47:23;96140.50;;;22.44;nan
64758;BME280;51193;45.588;5.376;2022-08-25T05:49:48;96135.88;;;22.46;nan
64758;BME280;51193;45.588;5.376;2022-08-25T05:52:13;96136.44;;;22.49;nan
64758;BME280;51193;45.588;5.376;2022-08-25T05:54:39;96139.97;;;22.50;nan
64758;BME280;51193;45.588;5.376;2022-08-25T05:57:05;96136.94;;;22.55;nan
64758;BME280;51193;45.588;5.376;2022-08-25T05:59:30;96135.72;;;22.47;nan
64758;BME280;51193;45.588;5.376;2022-08-25T06:01:56;96135.88;;;22.46;nan
64758;BME280;51193;45.588;5.376;2022-08-25T06:04:40;96128.00;;;22.44;nan
64758;BME280;51193;45.588;5.376;2022-08-25T06:07:06;96136.31;;;22.51;nan
64758;BME280;51193;45.588;5.376;2022-08-25T06:09:32;96126.66;;;22.50;nan
64758;BME280;51193;45.588;5.376;2022-08-25T06:11:57;96123.41;;;22.46;nan
64758;BME280;51193;45.588;5.376;2022-08-25T06:14:23;96117.72;;;22.40;nan
64758;BME280;51193;45.588;5.376;2022-08-25T06:16:48;96116.28;;;22.36;nan
64758;BME280;51193;45.588;5.376;2022-08-25T06:19:15;96119.16;;;22.44;nan
64758;BME280;51193;45.588;5.376;2022-08-25T06:21:41;96119.84;;;22.57;nan
64758;BME280;51193;45.588;5.376;2022-08-25T06:24:06;96117.25;;;22.67;nan
64758;BME280;51193;45.588;5.376;2022-08-25T06:26:32;96116.75;;;22.73;nan
64758;BME280;51193;45.588;5.376;2022-08-25T06:28:57;96125.06;;;22.80;nan
64758;BME280;51193;45.588;5.376;2022-08-25T06:31:23;96124.69;;;22.84;nan
64758;BME280;51193;45.588;5.376;2022-08-25T06:33:48;96121.78;;;22.87;nan
64758;BME280;51193;45.588;5.376;2022-08-25T06:36:14;96121.50;;;22.90;nan
64758;BME280;51193;45.588;5.376;2022-08-25T06:38:39;96119.44;;;22.94;nan
64758;BME280;51193;45.588;5.376;2022-08-25T06:41:06;96125.75;;;22.93;nan
64758;BME280;51193;45.588;5.376;2022-08-25T06:43:32;96127.75;;;23.01;nan
64758;BME280;51193;45.588;5.376;2022-08-25T06:46:06;96130.81;;;23.07;nan
64758;BME280;51193;45.588;5.376;2022-08-25T06:48:32;96128.47;;;23.14;nan
64758;BME280;51193;45.588;5.376;2022-08-25T06:50:58;96133.00;;;23.23;nan
64758;BME280;51193;45.588;5.376;2022-08-25T06:53:23;96135.84;;;23.32;nan
64758;BME280;51193;45.588;5.376;2022-08-25T06:55:55;96131.41;;;23.42;nan
64758;BME280;51193;45.588;5.376;2022-08-25T06:58:21;96138.91;;;23.48;nan
64758;BME280;51193;45.588;5.376;2022-08-25T07:00:47;96139.09;;;23.56;nan
64758;BME280;51193;45.588;5.376;2022-08-25T07:03:13;96152.59;;;23.64;nan
64758;BME280;51193;45.588;5.376;2022-08-25T07:05:38;96143.09;;;23.72;nan
64758;BME280;51193;45.588;5.376;2022-08-25T07:08:03;96142.81;;;23.75;nan
64758;BME280;51193;45.588;5.376;2022-08-25T07:10:29;96136.53;;;23.76;nan
64758;BME280;51193;45.588;5.376;2022-08-25T07:12:54;96144.03;;;23.82;nan
64758;BME280;51193;45.588;5.376;2022-08-25T07:15:19;96144.91;;;23.92;nan
64758;BME280;51193;45.588;5.376;2022-08-25T07:17:45;96146.91;;;24.00;nan
64758;BME280;51193;45.588;5.376;2022-08-25T07:20:10;96154.09;;;24.09;nan
64758;BME280;51193;45.588;5.376;2022-08-25T07:22:36;96149.94;;;24.16;nan
64758;BME280;51193;45.588;5.376;2022-08-25T07:25:01;96144.03;;;24.22;nan
64758;BME280;51193;45.588;5.376;2022-08-25T07:27:27;96145.28;;;24.28;nan
64758;BME280;51193;45.588;5.376;2022-08-25T07:29:52;96137.72;;;24.33;nan
64758;BME280;51193;45.588;5.376;2022-08-25T07:32:18;96145.06;;;24.41;nan
64758;BME280;51193;45.588;5.376;2022-08-25T07:34:43;96145.47;;;24.46;nan
64758;BME280;51193;45.588;5.376;2022-08-25T07:37:27;96143.81;;;24.55;nan
64758;BME280;51193;45.588;5.376;2022-08-25T07:39:52;96140.91;;;24.58;nan
64758;BME280;51193;45.588;5.376;2022-08-25T07:42:17;96138.50;;;24.64;nan
64758;BME280;51193;45.588;5.376;2022-08-25T07:44:43;96143.16;;;24.72;nan
64758;BME280;51193;45.588;5.376;2022-08-25T07:47:08;96143.03;;;24.74;nan
64758;BME280;51193;45.588;5.376;2022-08-25T07:49:33;96138.66;;;24.82;nan
64758;BME280;51193;45.588;5.376;2022-08-25T07:51:59;96148.50;;;24.92;nan
64758;BME280;51193;45.588;5.376;2022-08-25T07:54:24;96141.59;;;24.99;nan
64758;BME280;51193;45.588;5.376;2022-08-25T07:56:52;96147.94;;;25.07;nan
64758;BME280;51193;45.588;5.376;2022-08-25T07:59:17;96143.41;;;25.18;nan
64758;BME280;51193;45.588;5.376;2022-08-25T08:01:42;96145.41;;;25.25;nan
64758;BME280;51193;45.588;5.376;2022-08-25T08:04:08;96132.44;;;25.30;nan
64758;BME280;51193;45.588;5.376;2022-08-25T08:06:33;96142.56;;;25.37;nan
64758;BME280;51193;45.588;5.376;2022-08-25T08:08:59;96155.09;;;25.46;nan
64758;BME280;51193;45.588;5.376;2022-08-25T08:11:31;96145.34;;;25.55;nan
64758;BME280;51193;45.588;5.376;2022-08-25T08:14:01;96147.31;;;25.62;nan
64758;BME280;51193;45.588;5.376;2022-08-25T08:16:27;96153.19;;;25.76;nan
64758;BME280;51193;45.588;5.376;2022-08-25T08:18:53;96143.97;;;25.88;nan
64758;BME280;51193;45.588;5.376;2022-08-25T08:21:20;96143.53;;;26.02;nan
64758;BME280;51193;45.588;5.376;2022-08-25T08:23:46;96146.56;;;26.17;nan
64758;BME280;51193;45.588;5.376;2022-08-25T08:26:12;96143.06;;;26.35;nan
64758;BME280;51193;45.588;5.376;2022-08-25T08:28:38;96146.09;;;26.49;nan
64758;BME280;51193;45.588;5.376;2022-08-25T08:31:03;96145.59;;;26.64;nan
64758;BME280;51193;45.588;5.376;2022-08-25T08:33:28;96137.50;;;26.74;nan
64758;BME280;51193;45.588;5.376;2022-08-25T08:35:55;96138.66;;;26.89;nan
64758;BME280;51193;45.588;5.376;2022-08-25T08:38:20;96143.31;;;27.05;nan
64758;BME280;51193;45.588;5.376;2022-08-25T08:43:52;96147.16;;;27.38;nan
64758;BME280;51193;45.588;5.376;2022-08-25T08:46:19;96151.34;;;27.41;nan
64758;BME280;51193;45.588;5.376;2022-08-25T08:48:56;96147.22;;;27.46;nan
64758;BME280;51193;45.588;5.376;2022-08-25T08:51:30;96145.41;;;27.55;nan
64758;BME280;51193;45.588;5.376;2022-08-25T08:56:34;96141.34;;;27.77;nan
64758;BME280;51193;45.588;5.376;2022-08-25T08:59:02;96142.63;;;27.91;nan
64758;BME280;51193;45.588;5.376;2022-08-25T09:01:50;96145.72;;;28.04;nan
64758;BME280;51193;45.588;5.376;2022-08-25T09:04:19;96145.44;;;28.16;nan
64758;BME280;51193;45.588;5.376;2022-08-25T09:06:48;96132.84;;;28.16;nan
64758;BME280;51193;45.588;5.376;2022-08-25T09:09:25;96136.75;;;28.30;nan
64758;BME280;51193;45.588;5.376;2022-08-25T09:17:05;96149.34;;;28.64;nan
64758;BME280;51193;45.588;5.376;2022-08-25T09:27:24;96138.78;;;29.03;nan
64758;BME280;51193;45.588;5.376;2022-08-25T09:29:58;96147.94;;;29.27;nan
64758;BME280;51193;45.588;5.376;2022-08-25T09:32:26;96149.28;;;29.39;nan
64758;BME280;51193;45.588;5.376;2022-08-25T09:34:52;96152.78;;;29.56;nan
64758;BME280;51193;45.588;5.376;2022-08-25T09:37:19;96142.69;;;29.58;nan
64758;BME280;51193;45.588;5.376;2022-08-25T09:39:45;96145.00;;;29.69;nan
64758;BME280;51193;45.588;5.376;2022-08-25T09:42:10;96142.16;;;29.79;nan
64758;BME280;51193;45.588;5.376;2022-08-25T09:44:40;96149.38;;;29.87;nan
64758;BME280;51193;45.588;5.376;2022-08-25T09:47:20;96140.94;;;29.90;nan
64758;BME280;51193;45.588;5.376;2022-08-25T09:49:50;96136.75;;;29.87;nan
64758;BME280;51193;45.588;5.376;2022-08-25T09:52:25;96133.53;;;29.92;nan
64758;BME280;51193;45.588;5.376;2022-08-25T09:54:56;96139.06;;;30.07;nan
64758;BME280;51193;45.588;5.376;2022-08-25T09:57:29;96130.78;;;30.08;nan
64758;BME280;51193;45.588;5.376;2022-08-25T09:59:55;96146.59;;;30.20;nan
64758;BME280;51193;45.588;5.376;2022-08-25T10:04:45;96130.53;;;30.26;nan
64758;BME280;51193;45.588;5.376;2022-08-25T10:07:22;96135.09;;;30.26;nan
64758;BME280;51193;45.588;5.376;2022-08-25T10:09:59;96135.44;;;30.23;nan
64758;BME280;51193;45.588;5.376;2022-08-25T10:12:31;96137.78;;;30.34;nan
64758;BME280;51193;45.588;5.376;2022-08-25T10:15:03;96127.78;;;30.43;nan
64758;BME280;51193;45.588;5.376;2022-08-25T10:17:39;96124.84;;;30.61;nan
64758;BME280;51193;45.588;5.376;2022-08-25T10:22:36;96123.69;;;30.55;nan
64758;BME280;51193;45.588;5.376;2022-08-25T10:25:02;96116.28;;;30.49;nan
64758;BME280;51193;45.588;5.376;2022-08-25T10:32:28;96116.03;;;30.67;nan
64758;BME280;51193;45.588;5.376;2022-08-25T10:34:57;96115.75;;;30.85;nan
64758;BME280;51193;45.588;5.376;2022-08-25T10:40:09;96117.16;;;31.04;nan
64758;BME280;51193;45.588;5.376;2022-08-25T10:42:52;96114.72;;;31.09;nan
64758;BME280;51193;45.588;5.376;2022-08-25T10:45:23;96115.31;;;31.19;nan
64758;BME280;51193;45.588;5.376;2022-08-25T10:50:52;96104.16;;;31.22;nan
64758;BME280;51193;45.588;5.376;2022-08-25T10:53:24;96112.38;;;31.29;nan
64758;BME280;51193;45.588;5.376;2022-08-25T11:05:58;96099.72;;;31.53;nan
64758;BME280;51193;45.588;5.376;2022-08-25T11:16:34;96088.06;;;32.26;nan
64758;BME280;51193;45.588;5.376;2022-08-25T11:19:47;96095.88;;;32.36;nan
64758;BME280;51193;45.588;5.376;2022-08-25T11:21:51;96096.72;;;32.37;nan
64758;BME280;51193;45.588;5.376;2022-08-25T11:26:48;96082.63;;;32.41;nan
64758;BME280;51193;45.588;5.376;2022-08-25T11:29:15;96088.97;;;32.34;nan
64758;BME280;51193;45.588;5.376;2022-08-25T11:31:43;96092.06;;;32.31;nan
64758;BME280;51193;45.588;5.376;2022-08-25T11:34:10;96083.53;;;32.48;nan
64758;BME280;51193;45.588;5.376;2022-08-25T11:36:38;96085.31;;;32.56;nan
64758;BME280;51193;45.588;5.376;2022-08-25T11:52:02;96081.19;;;33.03;nan
64758;BME280;51193;45.588;5.376;2022-08-25T11:54:33;96075.22;;;33.08;nan
64758;BME280;51193;45.588;5.376;2022-08-25T11:57:22;96075.97;;;33.02;nan
64758;BME280;51193;45.588;5.376;2022-08-25T12:04:56;96068.78;;;33.09;nan
64758;BME280;51193;45.588;5.376;2022-08-25T12:07:22;96062.69;;;33.28;nan
64758;BME280;51193;45.588;5.376;2022-08-25T12:12:27;96063.44;;;33.44;nan
64758;BME280;51193;45.588;5.376;2022-08-25T12:14:53;96062.84;;;33.48;nan
64758;BME280;51193;45.588;5.376;2022-08-25T12:17:20;96063.81;;;33.62;nan
64758;BME280;51193;45.588;5.376;2022-08-25T12:19:47;96062.31;;;33.60;nan
64758;BME280;51193;45.588;5.376;2022-08-25T12:29:45;96061.44;;;33.59;nan
64758;BME280;51193;45.588;5.376;2022-08-25T12:32:27;96053.69;;;33.50;nan
64758;BME280;51193;45.588;5.376;2022-08-25T12:37:25;96051.81;;;33.50;nan
64758;BME280;51193;45.588;5.376;2022-08-25T12:42:35;96047.25;;;33.57;nan
64758;BME280;51193;45.588;5.376;2022-08-25T12:47:33;96043.28;;;33.88;nan
64758;BME280;51193;45.588;5.376;2022-08-25T12:52:42;96043.94;;;34.32;nan
64758;BME280;51193;45.588;5.376;2022-08-25T12:55:08;96035.19;;;34.36;nan
64758;BME280;51193;45.588;5.376;2022-08-25T12:57:45;96037.25;;;34.28;nan
64758;BME280;51193;45.588;5.376;2022-08-25T13:00:27;96035.78;;;34.32;nan
64758;BME280;51193;45.588;5.376;2022-08-25T13:05:29;96019.97;;;34.49;nan
64758;BME280;51193;45.588;5.376;2022-08-25T13:10:44;96013.72;;;34.48;nan
64758;BME280;51193;45.588;5.376;2022-08-25T13:16:01;96013.72;;;34.61;nan
64758;BME280;51193;45.588;5.376;2022-08-25T13:18:28;96000.41;;;34.66;nan
64758;BME280;51193;45.588;5.376;2022-08-25T13:23:33;96010.66;;;35.04;nan
64758;BME280;51193;45.588;5.376;2022-08-25T13:25:58;96007.34;;;35.22;nan
64758;BME280;51193;45.588;5.376;2022-08-25T13:28:35;96000.63;;;35.32;nan
64758;BME280;51193;45.588;5.376;2022-08-25T13:31:05;96004.19;;;35.39;nan
64758;BME280;51193;45.588;5.376;2022-08-25T13:33:32;95996.81;;;35.46;nan
64758;BME280;51193;45.588;5.376;2022-08-25T13:35:57;96009.56;;;35.52;nan
64758;BME280;51193;45.588;5.376;2022-08-25T13:38:42;96013.53;;;35.56;nan
64758;BME280;51193;45.588;5.376;2022-08-25T13:41:08;96004.75;;;35.54;nan
64758;BME280;51193;45.588;5.376;2022-08-25T13:43:35;96001.00;;;35.55;nan
64758;BME280;51193;45.588;5.376;2022-08-25T13:46:00;95996.41;;;35.56;nan
64758;BME280;51193;45.588;5.376;2022-08-25T13:48:33;96005.59;;;35.61;nan
64758;BME280;51193;45.588;5.376;2022-08-25T13:51:15;96005.59;;;35.61;nan
64758;BME280;51193;45.588;5.376;2022-08-25T13:53:46;96000.16;;;35.61;nan
64758;BME280;51193;45.588;5.376;2022-08-25T13:56:12;95993.25;;;35.52;nan
64758;BME280;51193;45.588;5.376;2022-08-25T13:58:47;95991.00;;;35.42;nan
64758;BME280;51193;45.588;5.376;2022-08-25T14:03:39;95989.97;;;35.37;nan
64758;BME280;51193;45.588;5.376;2022-08-25T14:08:40;95992.03;;;35.41;nan
64758;BME280;51193;45.588;5.376;2022-08-25T14:13:31;95988.25;;;35.49;nan
64758;BME280;51193;45.588;5.376;2022-08-25T14:16:05;95983.88;;;35.55;nan
64758;BME280;51193;45.588;5.376;2022-08-25T14:18:31;95986.78;;;35.53;nan
64758;BME280;51193;45.588;5.376;2022-08-25T14:20:56;95985.50;;;35.56;nan
64758;BME280;51193;45.588;5.376;2022-08-25T14:23:23;95987.00;;;35.52;nan
64758;BME280;51193;45.588;5.376;2022-08-25T14:25:51;95986.59;;;35.41;nan
64758;BME280;51193;45.588;5.376;2022-08-25T14:28:17;95982.41;;;35.45;nan
64758;BME280;51193;45.588;5.376;2022-08-25T14:30:48;95990.75;;;35.44;nan
64758;BME280;51193;45.588;5.376;2022-08-25T14:33:14;95984.91;;;35.47;nan
64758;BME280;51193;45.588;5.376;2022-08-25T14:35:42;95983.47;;;35.44;nan
64758;BME280;51193;45.588;5.376;2022-08-25T14:38:09;95981.16;;;35.41;nan
64758;BME280;51193;45.588;5.376;2022-08-25T14:40:35;95983.06;;;35.41;nan
64758;BME280;51193;45.588;5.376;2022-08-25T14:43:00;95981.56;;;35.45;nan
64758;BME280;51193;45.588;5.376;2022-08-25T14:45:26;95981.56;;;35.45;nan
64758;BME280;51193;45.588;5.376;2022-08-25T14:47:51;95980.50;;;35.46;nan
64758;BME280;51193;45.588;5.376;2022-08-25T14:50:16;95978.03;;;35.44;nan
64758;BME280;51193;45.588;5.376;2022-08-25T14:52:43;95973.66;;;35.37;nan
64758;BME280;51193;45.588;5.376;2022-08-25T14:55:09;95970.31;;;35.28;nan
64758;BME280;51193;45.588;5.376;2022-08-25T14:57:34;95957.97;;;35.19;nan
64758;BME280;51193;45.588;5.376;2022-08-25T15:00:00;95956.09;;;35.06;nan
64758;BME280;51193;45.588;5.376;2022-08-25T15:02:25;95951.31;;;35.01;nan
64758;BME280;51193;45.588;5.376;2022-08-25T15:04:55;95949.81;;;34.92;nan
64758;BME280;51193;45.588;5.376;2022-08-25T15:07:21;95957.16;;;34.85;nan
64758;BME280;51193;45.588;5.376;2022-08-25T15:10:05;95955.25;;;34.72;nan
64758;BME280;51193;45.588;5.376;2022-08-25T15:12:32;95961.31;;;34.67;nan
64758;BME280;51193;45.588;5.376;2022-08-25T15:14:57;95951.06;;;34.63;nan
64758;BME280;51193;45.588;5.376;2022-08-25T15:17:22;95951.06;;;34.63;nan